createdAt,value
2023-05-05T00:03:00.897Z,12.65
2023-05-05T00:06:07.366Z,12.64
2023-05-05T00:09:22.014Z,12.54
2023-05-05T00:12:31.273Z,12.51
2023-05-05T00:15:39.559Z,12.45
2023-05-05T00:18:52.490Z,12.29
2023-05-05T00:21:56.540Z,12.14
2023-05-05T00:25:02.057Z,12.08
2023-05-05T00:28:06.428Z,12.03
2023-05-05T00:31:17.659Z,12.03
2023-05-05T00:34:23.281Z,12.01
2023-05-05T00:37:36.101Z,11.95
2023-05-05T00:40:44.184Z,11.87
2023-05-05T00:43:49.946Z,11.75
2023-05-05T00:46:54.080Z,11.71
2023-05-05T00:49:56.863Z,11.60
2023-05-05T00:53:02.832Z,11.48
2023-05-05T00:56:08.781Z,11.39
2023-05-05T00:59:13.854Z,11.42
2023-05-05T01:02:22.541Z,11.34
2023-05-05T01:05:36.846Z,11.29
2023-05-05T01:09:03.112Z,11.23
2023-05-05T01:12:24.466Z,11.17
2023-05-05T01:15:29.686Z,11.11
2023-05-05T01:18:57.286Z,11.06
2023-05-05T01:22:03.489Z,10.89
2023-05-05T01:25:24.809Z,10.91
2023-05-05T01:28:28.775Z,10.89
2023-05-05T01:31:39.534Z,10.84
2023-05-05T01:34:45.563Z,10.84
2023-05-05T01:38:00.856Z,10.77
2023-05-05T01:41:18.907Z,10.75
2023-05-05T01:44:24.958Z,10.65
2023-05-05T01:47:29.566Z,10.67
2023-05-05T01:50:32.347Z,10.65
2023-05-05T01:53:36.231Z,10.66
2023-05-05T01:56:42.377Z,10.65
2023-05-05T01:59:45.417Z,10.61
2023-05-05T02:02:50.482Z,10.65
2023-05-05T02:05:55.550Z,10.66
2023-05-05T02:08:59.691Z,10.70
2023-05-05T02:12:04.891Z,10.76
2023-05-05T02:15:11.666Z,10.68
2023-05-05T02:18:14.940Z,10.64
2023-05-05T02:21:24.496Z,10.58
2023-05-05T02:24:27.695Z,10.53
2023-05-05T02:27:32.638Z,10.59
2023-05-05T02:30:37.393Z,10.51
2023-05-05T02:33:41.278Z,10.44
2023-05-05T02:36:46.423Z,10.43
2023-05-05T02:39:59.981Z,10.45
2023-05-05T02:43:07.516Z,10.44
2023-05-05T02:46:11.559Z,10.40
2023-05-05T02:49:24.467Z,10.47
2023-05-05T02:52:27.797Z,10.44
2023-05-05T02:55:42.174Z,10.44
2023-05-05T02:59:08.635Z,10.45
2023-05-05T03:02:42.267Z,10.39
2023-05-05T03:06:06.104Z,10.44
2023-05-05T03:09:46.084Z,10.35
2023-05-05T03:13:12.107Z,10.29
2023-05-05T03:16:19.461Z,10.20
2023-05-05T03:19:42.814Z,10.25
2023-05-05T03:22:57.315Z,10.34
2023-05-05T03:26:39.685Z,10.26
2023-05-05T03:33:28.207Z,10.14
2023-05-05T03:36:35.013Z,10.18
2023-05-05T03:39:44.491Z,10.11
2023-05-05T03:43:02.757Z,10.10
2023-05-05T03:46:10.309Z,10.08
2023-05-05T03:49:21.700Z,10.16
2023-05-05T03:52:27.917Z,10.24
2023-05-05T03:55:44.815Z,10.24
2023-05-05T03:59:01.551Z,10.25
2023-05-05T04:02:09.245Z,10.25
2023-05-05T04:05:20.898Z,10.39
2023-05-05T04:08:44.551Z,10.50
2023-05-05T04:11:56.622Z,10.53
2023-05-05T04:15:11.499Z,10.71
2023-05-05T04:18:24.867Z,10.75
2023-05-05T04:28:12.554Z,10.95
2023-05-05T04:31:15.608Z,11.06
2023-05-05T04:34:19.121Z,11.19
2023-05-05T04:37:22.153Z,11.28
2023-05-05T04:40:26.788Z,11.45
2023-05-05T04:43:32.060Z,11.67
2023-05-05T04:46:36.153Z,11.98
2023-05-05T04:49:43.266Z,12.18
2023-05-05T04:52:50.251Z,12.38
2023-05-05T04:56:01.607Z,12.49
2023-05-05T04:59:11.840Z,12.57
2023-05-05T05:02:16.123Z,12.78
2023-05-05T05:05:19.668Z,13.06
2023-05-05T05:08:23.075Z,13.14
2023-05-05T05:11:27.145Z,13.28
2023-05-05T05:14:30.244Z,13.19
2023-05-05T05:17:36.790Z,13.84
2023-05-05T05:20:41.641Z,13.84
2023-05-05T05:23:51.341Z,14.00
2023-05-05T05:26:54.974Z,14.10
2023-05-05T05:29:58.669Z,14.47
2023-05-05T05:33:02.573Z,14.68
2023-05-05T05:36:05.307Z,15.08
2023-05-05T05:39:08.353Z,16.06
2023-05-05T05:42:14.020Z,17.02
2023-05-05T05:45:16.809Z,17.12
2023-05-05T05:48:20.686Z,16.79
2023-05-05T05:51:23.552Z,16.05
2023-05-05T05:54:26.248Z,15.68
2023-05-05T05:57:35.346Z,15.98
2023-05-05T06:00:38.240Z,15.93
2023-05-05T06:03:41.268Z,16.33
2023-05-05T06:06:48.587Z,17.01
2023-05-05T06:09:51.784Z,17.42
2023-05-05T06:12:54.628Z,17.64
2023-05-05T06:16:00.265Z,17.87
2023-05-05T06:19:04.749Z,17.40
2023-05-05T06:22:13.846Z,17.17
2023-05-05T06:25:17.624Z,16.68
2023-05-05T06:28:25.942Z,16.36
2023-05-05T06:31:29.688Z,16.23
2023-05-05T06:34:35.376Z,16.50
2023-05-05T06:37:44.257Z,16.37
2023-05-05T06:57:56.905Z,16.70
2023-05-05T07:01:00.374Z,16.79
2023-05-05T07:04:02.847Z,16.68
2023-05-05T07:07:08.594Z,17.13
2023-05-05T07:10:15.084Z,17.52
2023-05-05T07:13:18.033Z,18.47
2023-05-05T07:16:21.267Z,20.56
2023-05-05T07:19:26.012Z,20.30
2023-05-05T07:22:29.395Z,21.84
2023-05-05T07:25:33.273Z,23.30
2023-05-05T07:28:36.348Z,25.85
2023-05-05T07:31:39.123Z,26.44
2023-05-05T07:34:41.682Z,26.66
2023-05-05T07:37:52.048Z,25.73
2023-05-05T07:40:56.270Z,26.06
2023-05-05T07:44:00.830Z,27.45
2023-05-05T07:47:03.874Z,28.29
2023-05-05T07:50:09.975Z,29.30
2023-05-05T08:00:41.211Z,29.43
2023-05-05T08:04:05.788Z,30.02
2023-05-05T08:10:35.181Z,27.31
2023-05-05T08:13:41.625Z,24.33
2023-05-05T08:16:45.331Z,24.13
2023-05-05T08:19:49.181Z,23.66
2023-05-05T08:22:54.221Z,22.56
2023-05-05T08:26:11.172Z,21.12
2023-05-05T08:29:20.513Z,20.52
2023-05-05T08:32:29.840Z,20.64
2023-05-05T08:35:36.476Z,20.53
2023-05-05T08:38:43.015Z,20.40
2023-05-05T08:41:48.322Z,20.25
2023-05-05T08:44:51.625Z,19.32
2023-05-05T08:47:57.628Z,20.12
2023-05-05T08:51:05.241Z,20.82
2023-05-05T08:54:21.964Z,20.94
2023-05-05T08:57:43.021Z,20.39
2023-05-05T09:00:57.011Z,20.58
2023-05-05T09:04:18.259Z,20.98
2023-05-05T09:07:25.727Z,21.22
2023-05-05T09:10:35.537Z,20.84
2023-05-05T09:13:39.614Z,20.78
2023-05-05T09:16:47.000Z,19.77
2023-05-05T09:20:36.708Z,19.89
2023-05-05T09:23:39.784Z,20.35
2023-05-05T09:26:48.144Z,20.76
2023-05-05T09:30:00.157Z,20.62
2023-05-05T09:33:10.032Z,21.09
2023-05-05T09:36:20.114Z,21.10
2023-05-05T09:39:23.890Z,21.20
2023-05-05T09:42:48.719Z,21.22
2023-05-05T09:45:52.286Z,21.62
2023-05-05T09:49:12.115Z,22.07
2023-05-05T10:16:25.187Z,21.97
2023-05-05T10:19:33.141Z,22.15
2023-05-05T10:22:36.636Z,22.50
2023-05-05T10:25:43.422Z,22.34
2023-05-05T10:28:57.134Z,21.96
2023-05-05T10:32:21.501Z,22.27
2023-05-05T10:35:29.158Z,21.98
2023-05-05T10:38:31.947Z,21.36
2023-05-05T10:41:35.274Z,21.33
2023-05-05T10:44:39.157Z,21.69
2023-05-05T10:47:50.412Z,21.14
2023-05-05T10:51:38.687Z,22.01
2023-05-05T10:55:08.099Z,22.14
2023-05-05T10:58:43.682Z,22.22
2023-05-05T11:01:54.469Z,22.42
2023-05-05T11:05:21.725Z,22.35
2023-05-05T11:08:28.870Z,21.82
2023-05-05T11:12:06.196Z,22.28
2023-05-05T11:15:27.470Z,22.33
2023-05-05T11:18:36.146Z,22.79
2023-05-05T11:21:59.693Z,23.36
2023-05-05T11:25:22.527Z,23.44
2023-05-05T11:28:30.366Z,23.77
2023-05-05T11:31:34.963Z,23.77
2023-05-05T11:34:48.414Z,23.98
2023-05-05T11:38:03.183Z,24.05
2023-05-05T11:41:26.307Z,23.95
2023-05-05T11:44:35.710Z,23.88
2023-05-05T11:47:38.806Z,23.67
2023-05-05T11:50:41.673Z,23.92
2023-05-05T11:53:45.503Z,23.84
2023-05-05T11:57:00.212Z,24.20
2023-05-05T12:00:05.113Z,24.21
2023-05-05T12:03:10.068Z,24.23
2023-05-05T12:06:13.544Z,24.22
2023-05-05T12:09:16.420Z,24.13
2023-05-05T12:12:20.203Z,23.79
2023-05-05T12:15:29.829Z,24.00
2023-05-05T12:18:32.730Z,23.73
2023-05-05T12:21:36.355Z,23.23
2023-05-05T12:24:41.912Z,23.54
2023-05-05T12:27:54.716Z,24.00
2023-05-05T12:31:03.596Z,23.97
2023-05-05T12:34:07.337Z,24.30
2023-05-05T12:37:10.161Z,24.50
2023-05-05T12:40:31.390Z,24.50
2023-05-05T12:43:34.591Z,24.34
2023-05-05T12:46:47.321Z,24.11
2023-05-05T12:49:53.511Z,24.08
2023-05-05T12:52:56.245Z,23.99
2023-05-05T12:55:59.209Z,24.06
2023-05-05T12:59:02.742Z,24.20
2023-05-05T13:02:05.274Z,24.42
2023-05-05T13:05:09.232Z,24.53
2023-05-05T13:08:12.379Z,24.40
2023-05-05T13:11:15.019Z,24.25
2023-05-05T13:14:17.711Z,23.88
2023-05-05T13:17:20.481Z,23.61
2023-05-05T13:20:23.057Z,23.52
2023-05-05T13:23:25.903Z,23.54
2023-05-05T13:26:28.868Z,23.64
2023-05-05T13:29:32.017Z,23.71
2023-05-05T13:32:38.744Z,23.74
2023-05-05T13:35:41.659Z,23.81
2023-05-05T13:38:45.339Z,23.93
2023-05-05T13:41:48.517Z,23.80
2023-05-05T13:44:51.419Z,24.04
2023-05-05T13:47:53.632Z,23.74
2023-05-05T13:50:56.340Z,23.69
2023-05-05T13:53:58.896Z,23.65
2023-05-05T13:57:01.771Z,23.42
2023-05-05T14:00:04.743Z,23.47
2023-05-05T14:03:07.557Z,23.42
2023-05-05T14:06:11.489Z,23.20
2023-05-05T14:09:14.285Z,23.28
2023-05-05T14:12:17.024Z,22.85
2023-05-05T14:15:20.774Z,23.28
2023-05-05T14:18:23.154Z,23.60
2023-05-05T14:21:25.475Z,23.49
2023-05-05T14:24:28.129Z,23.29
2023-05-05T14:27:30.498Z,23.49
2023-05-05T14:30:33.734Z,23.68
2023-05-05T14:33:36.922Z,23.38
2023-05-05T14:36:39.353Z,23.27
2023-05-05T14:39:42.447Z,23.30
2023-05-05T14:42:54.496Z,23.52
2023-05-05T14:45:58.499Z,23.49
2023-05-05T14:49:01.312Z,23.44
2023-05-05T14:52:05.931Z,23.34
2023-05-05T14:55:11.607Z,23.37
2023-05-05T14:58:14.594Z,23.28
2023-05-05T15:01:17.362Z,23.18
2023-05-05T15:04:20.618Z,23.15
2023-05-05T15:07:22.961Z,22.97
2023-05-05T15:10:25.623Z,22.83
2023-05-05T15:13:28.806Z,22.84
2023-05-05T15:16:32.654Z,22.96
2023-05-05T15:19:37.257Z,23.24
2023-05-05T15:22:39.625Z,23.20
2023-05-05T15:25:42.717Z,23.17
2023-05-05T15:28:45.112Z,23.07
2023-05-05T15:31:47.631Z,23.17
2023-05-05T15:34:50.913Z,22.99
2023-05-05T15:37:54.376Z,23.02
2023-05-05T15:40:57.176Z,22.85
2023-05-05T15:44:00.057Z,22.73
2023-05-05T15:47:02.290Z,22.73
2023-05-05T15:50:05.946Z,22.80
2023-05-05T15:53:08.990Z,22.59
2023-05-05T15:56:12.160Z,22.62
2023-05-05T15:59:15.552Z,22.62
2023-05-05T16:02:19.001Z,22.58
2023-05-05T16:05:23.080Z,22.40
2023-05-05T16:08:26.227Z,22.24
2023-05-05T16:11:29.210Z,22.12
2023-05-05T16:14:34.947Z,22.20
2023-05-05T16:17:37.768Z,22.16
2023-05-05T16:20:40.429Z,22.17
2023-05-05T16:23:43.267Z,22.23
2023-05-05T16:26:46.431Z,22.23
2023-05-05T16:29:49.235Z,22.11
2023-05-05T16:32:53.213Z,22.04
2023-05-05T16:35:56.588Z,21.94
2023-05-05T16:38:59.303Z,21.96
2023-05-05T16:42:03.355Z,21.86
2023-05-05T16:45:07.663Z,21.72
2023-05-05T16:48:10.927Z,21.55
2023-05-05T16:51:13.549Z,21.54
2023-05-05T16:54:16.753Z,21.48
2023-05-05T16:57:20.831Z,21.34
2023-05-05T17:00:23.726Z,21.13
2023-05-05T17:03:26.953Z,20.98
2023-05-05T17:06:33.476Z,20.83
2023-05-05T17:09:36.517Z,20.70
2023-05-05T17:12:38.940Z,20.55
2023-05-05T17:15:42.106Z,20.41
2023-05-05T17:18:44.983Z,20.30
2023-05-05T17:21:47.578Z,20.17
2023-05-05T17:24:50.141Z,20.03
2023-05-05T17:27:53.263Z,19.95
2023-05-05T17:31:00.123Z,19.79
2023-05-05T17:34:03.105Z,19.71
2023-05-05T17:37:06.234Z,19.66
2023-05-05T17:40:09.290Z,19.56
2023-05-05T17:43:11.667Z,19.43
2023-05-05T17:46:17.181Z,19.33
2023-05-05T17:49:21.948Z,18.96
2023-05-05T17:52:25.057Z,18.82
2023-05-05T17:55:28.417Z,18.66
2023-05-05T17:58:31.372Z,18.52
2023-05-05T18:01:34.046Z,18.33
2023-05-05T18:04:37.492Z,18.18
2023-05-05T18:07:40.037Z,18.05
2023-05-05T18:10:43.153Z,17.93
2023-05-05T18:13:46.154Z,17.80
2023-05-05T18:16:51.196Z,17.62
2023-05-05T18:19:53.758Z,17.46
2023-05-05T18:22:56.339Z,17.31
2023-05-05T18:25:59.167Z,17.21
2023-05-05T18:29:02.370Z,17.15
2023-05-05T18:32:06.730Z,17.07
2023-05-05T18:35:10.893Z,17.01
2023-05-05T18:38:18.335Z,16.89
2023-05-05T18:41:21.186Z,16.76
2023-05-05T18:44:23.644Z,16.59
2023-05-05T18:47:26.829Z,16.49
2023-05-05T18:50:30.056Z,16.36
2023-05-05T18:53:32.486Z,16.26
2023-05-05T18:56:35.696Z,16.17
2023-05-05T18:59:38.771Z,16.08
2023-05-05T19:02:42.241Z,16.05
2023-05-05T19:05:45.167Z,16.00
2023-05-05T19:08:48.143Z,15.91
2023-05-05T19:11:51.552Z,15.84
2023-05-05T19:14:54.089Z,15.76
2023-05-05T19:17:56.907Z,15.69
2023-05-05T19:20:59.430Z,15.66
2023-05-05T19:24:02.486Z,15.60
2023-05-05T19:27:05.601Z,15.54
2023-05-05T19:30:10.946Z,15.47
2023-05-05T19:33:13.838Z,15.38
2023-05-05T19:36:17.191Z,15.33
2023-05-05T19:39:20.715Z,15.07
2023-05-05T19:42:23.300Z,15.02
2023-05-05T19:45:25.897Z,15.04
2023-05-05T19:48:28.723Z,14.84
2023-05-05T19:51:32.391Z,14.88
2023-05-05T19:54:35.092Z,14.90
2023-05-05T19:57:38.110Z,14.84
2023-05-05T20:00:41.295Z,14.80
2023-05-05T20:03:44.809Z,14.75
2023-05-05T20:06:48.635Z,14.70
2023-05-05T20:09:51.211Z,14.65
2023-05-05T20:12:54.703Z,14.64
2023-05-05T20:15:57.355Z,14.59
2023-05-05T20:19:00.901Z,14.54
2023-05-05T20:22:04.799Z,14.49
2023-05-05T20:25:07.155Z,14.41
2023-05-05T20:28:09.513Z,14.40
2023-05-05T20:31:12.427Z,14.34
2023-05-05T20:34:15.578Z,14.30
2023-05-05T20:37:18.416Z,14.29
2023-05-05T20:40:22.807Z,14.27
2023-05-05T20:43:26.085Z,14.22
2023-05-05T20:46:30.048Z,14.17
2023-05-05T20:49:33.417Z,14.19
2023-05-05T20:52:37.642Z,14.10
2023-05-05T20:55:40.439Z,14.03
2023-05-05T20:58:43.410Z,13.90
2023-05-05T21:01:46.661Z,13.93
2023-05-05T21:04:51.138Z,13.83
2023-05-05T21:07:54.860Z,13.84
2023-05-05T21:10:57.440Z,13.78
2023-05-05T21:14:00.173Z,13.73
2023-05-05T21:17:03.033Z,13.79
2023-05-05T21:20:07.392Z,13.77
2023-05-05T21:23:10.032Z,13.72
2023-05-05T21:26:12.993Z,13.71
2023-05-05T21:29:16.918Z,13.72
2023-05-05T21:32:19.857Z,13.72
2023-05-05T21:35:22.608Z,13.71
2023-05-05T21:38:24.862Z,13.73
2023-05-05T21:41:27.227Z,13.71
2023-05-05T21:44:29.976Z,13.70
2023-05-05T21:47:32.910Z,13.78
2023-05-05T21:50:37.134Z,13.78
2023-05-05T21:53:41.450Z,13.87
2023-05-05T21:56:44.465Z,13.83
2023-05-05T21:59:47.564Z,13.79
2023-05-05T22:02:50.740Z,13.74
2023-05-05T22:05:53.770Z,13.78
2023-05-05T22:09:00.249Z,13.78
2023-05-05T22:12:03.290Z,13.77
2023-05-05T22:15:06.486Z,13.65
2023-05-05T22:18:10.156Z,13.61
2023-05-05T22:21:12.811Z,13.55
2023-05-05T22:24:15.577Z,13.46
2023-05-05T22:27:19.751Z,13.37
2023-05-05T22:30:22.661Z,13.31
2023-05-05T22:33:26.972Z,13.27
2023-05-05T22:36:30.642Z,13.27
2023-05-05T22:39:34.034Z,13.22
2023-05-05T22:42:37.217Z,13.20
2023-05-05T22:45:40.029Z,13.24
2023-05-05T22:48:42.732Z,13.16
2023-05-05T22:51:45.376Z,13.15
2023-05-05T22:54:48.873Z,13.12
2023-05-05T22:57:52.751Z,13.06
2023-05-05T23:00:55.322Z,13.04
2023-05-05T23:03:58.067Z,12.98
2023-05-05T23:07:01.532Z,12.95
2023-05-05T23:10:05.552Z,12.92
2023-05-05T23:13:09.688Z,12.92
2023-05-05T23:16:12.547Z,12.88
2023-05-05T23:19:15.261Z,12.84
2023-05-05T23:22:17.782Z,12.81
2023-05-05T23:25:20.094Z,12.78
2023-05-05T23:28:23.017Z,12.73
2023-05-05T23:31:26.467Z,12.69
2023-05-05T23:34:29.062Z,12.63
2023-05-05T23:37:31.585Z,12.56
2023-05-05T23:40:35.064Z,12.51
2023-05-05T23:43:37.517Z,12.48
2023-05-05T23:46:40.743Z,12.44
2023-05-05T23:49:43.948Z,12.34
2023-05-05T23:52:49.422Z,12.31
2023-05-05T23:55:52.797Z,12.25
2023-05-05T23:58:56.673Z,12.22
